sensor_id;sensor_type;location;lat;lon;timestamp;pressure;altitude;pressure_sealevel;temperature;humidity
6020;BME280;3038;51.122;6.840;2022-10-17T00:00:16;101437.63;;;16.54;85.52
6020;BME280;3038;51.122;6.840;2022-10-17T00:02:41;101435.94;;;16.53;85.55
6020;BME280;3038;51.122;6.840;2022-10-17T00:05:07;101441.59;;;16.58;85.47
6020;BME280;3038;51.122;6.840;2022-10-17T00:07:32;101439.88;;;16.65;85.32
6020;BME280;3038;51.122;6.840;2022-10-17T00:09:58;101439.13;;;16.71;85.26
6020;BME280;3038;51.122;6.840;2022-10-17T00:12:23;101434.09;;;16.76;85.03
6020;BME280;3038;51.122;6.840;2022-10-17T00:14:48;101434.00;;;16.84;84.75
6020;BME280;3038;51.122;6.840;2022-10-17T00:17:14;101441.31;;;16.90;84.75
6020;BME280;3038;51.122;6.840;2022-10-17T00:19:41;101432.91;;;16.93;84.50
6020;BME280;3038;51.122;6.840;2022-10-17T00:22:06;101435.59;;;16.93;84.60
6020;BME280;3038;51.122;6.840;2022-10-17T00:24:31;101428.56;;;16.92;84.59
6020;BME280;3038;51.122;6.840;2022-10-17T00:26:57;101431.41;;;16.91;84.69
6020;BME280;3038;51.122;6.840;2022-10-17T00:29:22;101433.63;;;16.87;84.82
6020;BME280;3038;51.122;6.840;2022-10-17T00:31:48;101440.00;;;16.86;84.77
6020;BME280;3038;51.122;6.840;2022-10-17T00:34:13;101434.66;;;16.86;84.45
6020;BME280;3038;51.122;6.840;2022-10-17T00:36:38;101436.03;;;16.82;84.65
6020;BME280;3038;51.122;6.840;2022-10-17T00:39:04;101437.72;;;16.83;84.74
6020;BME280;3038;51.122;6.840;2022-10-17T00:41:32;101444.75;;;16.84;85.00
6020;BME280;3038;51.122;6.840;2022-10-17T00:43:59;101446.88;;;16.89;84.62
6020;BME280;3038;51.122;6.840;2022-10-17T00:46:31;101445.22;;;16.88;84.69
6020;BME280;3038;51.122;6.840;2022-10-17T00:49:02;101442.53;;;16.88;84.61
6020;BME280;3038;51.122;6.840;2022-10-17T00:51:44;101439.00;;;16.87;84.89
6020;BME280;3038;51.122;6.840;2022-10-17T00:54:13;101439.00;;;16.87;84.49
6020;BME280;3038;51.122;6.840;2022-10-17T00:56:39;101436.88;;;16.83;84.70
6020;BME280;3038;51.122;6.840;2022-10-17T00:59:06;101439.72;;;16.81;84.55
6020;BME280;3038;51.122;6.840;2022-10-17T01:01:33;101440.13;;;16.78;84.63
6020;BME280;3038;51.122;6.840;2022-10-17T01:03:58;101434.09;;;16.76;84.73
6020;BME280;3038;51.122;6.840;2022-10-17T01:06:24;101435.47;;;16.72;84.73
6020;BME280;3038;51.122;6.840;2022-10-17T01:08:49;101431.94;;;16.72;84.76
6020;BME280;3038;51.122;6.840;2022-10-17T01:14:32;101440.88;;;16.64;85.03
6020;BME280;3038;51.122;6.840;2022-10-17T01:17:12;101441.06;;;16.62;85.10
6020;BME280;3038;51.122;6.840;2022-10-17T01:20:10;101443.94;;;16.61;85.41
6020;BME280;3038;51.122;6.840;2022-10-17T01:22:50;101436.72;;;16.61;85.23
6020;BME280;3038;51.122;6.840;2022-10-17T01:39:29;101449.63;;;16.58;85.23
6020;BME280;3038;51.122;6.840;2022-10-17T01:42:06;101435.78;;;16.54;85.44
6020;BME280;3038;51.122;6.840;2022-10-17T01:44:46;101432.91;;;16.56;85.43
6020;BME280;3038;51.122;6.840;2022-10-17T01:47:31;101432.09;;;16.55;85.43
6020;BME280;3038;51.122;6.840;2022-10-17T01:50:02;101421.56;;;16.54;85.16
6020;BME280;3038;51.122;6.840;2022-10-17T01:52:37;101417.19;;;16.53;85.34
6020;BME280;3038;51.122;6.840;2022-10-17T01:55:13;101424.22;;;16.54;85.07
6020;BME280;3038;51.122;6.840;2022-10-17T01:57:42;101421.56;;;16.54;85.11
6020;BME280;3038;51.122;6.840;2022-10-17T02:00:13;101428.56;;;16.55;84.80
6020;BME280;3038;51.122;6.840;2022-10-17T02:02:41;101414.50;;;16.53;85.00
6020;BME280;3038;51.122;6.840;2022-10-17T02:05:07;101402.22;;;16.58;84.76
6020;BME280;3038;51.122;6.840;2022-10-17T02:07:33;101400.19;;;16.60;84.74
6020;BME280;3038;51.122;6.840;2022-10-17T02:09:58;101404.53;;;16.61;84.51
6020;BME280;3038;51.122;6.840;2022-10-17T02:12:40;101400.38;;;16.59;84.66
6020;BME280;3038;51.122;6.840;2022-10-17T02:18:06;101403.97;;;16.51;84.79
6020;BME280;3038;51.122;6.840;2022-10-17T02:20:58;101408.69;;;16.49;84.80
6020;BME280;3038;51.122;6.840;2022-10-17T02:26:43;101403.88;;;16.44;84.99
6020;BME280;3038;51.122;6.840;2022-10-17T02:29:19;101404.69;;;16.45;84.91
6020;BME280;3038;51.122;6.840;2022-10-17T02:31:50;101407.19;;;16.47;84.91
6020;BME280;3038;51.122;6.840;2022-10-17T02:34:25;101398.50;;;16.44;85.15
6020;BME280;3038;51.122;6.840;2022-10-17T02:36:54;101408.84;;;16.48;84.53
6020;BME280;3038;51.122;6.840;2022-10-17T02:39:23;101399.34;;;16.45;84.35
6020;BME280;3038;51.122;6.840;2022-10-17T02:41:50;101399.50;;;16.43;84.45
6020;BME280;3038;51.122;6.840;2022-10-17T02:44:16;101405.25;;;16.40;84.27
6020;BME280;3038;51.122;6.840;2022-10-17T02:46:47;101403.59;;;16.39;84.80
6020;BME280;3038;51.122;6.840;2022-10-17T02:49:27;101411.78;;;16.38;84.67
6020;BME280;3038;51.122;6.840;2022-10-17T02:52:04;101413.00;;;16.35;84.85
6020;BME280;3038;51.122;6.840;2022-10-17T02:54:46;101408.94;;;16.39;84.89
6020;BME280;3038;51.122;6.840;2022-10-17T02:57:27;101409.94;;;16.38;84.75
6020;BME280;3038;51.122;6.840;2022-10-17T02:59:57;101412.63;;;16.38;84.76
6020;BME280;3038;51.122;6.840;2022-10-17T03:02:25;101410.75;;;16.39;84.71
6020;BME280;3038;51.122;6.840;2022-10-17T03:04:50;101410.94;;;16.37;84.64
6020;BME280;3038;51.122;6.840;2022-10-17T03:07:15;101414.47;;;16.38;84.41
6020;BME280;3038;51.122;6.840;2022-10-17T03:09:41;101424.16;;;16.39;84.68
6020;BME280;3038;51.122;6.840;2022-10-17T03:12:06;101416.13;;;16.39;84.47
6020;BME280;3038;51.122;6.840;2022-10-17T03:14:32;101419.28;;;16.42;84.26
6020;BME280;3038;51.122;6.840;2022-10-17T03:16:57;101419.28;;;16.42;84.27
6020;BME280;3038;51.122;6.840;2022-10-17T03:19:22;101414.75;;;16.43;84.21
6020;BME280;3038;51.122;6.840;2022-10-17T03:21:48;101407.38;;;16.45;84.08
6020;BME280;3038;51.122;6.840;2022-10-17T03:24:13;101415.22;;;16.47;84.28
6020;BME280;3038;51.122;6.840;2022-10-17T03:26:38;101413.94;;;16.42;84.09
6020;BME280;3038;51.122;6.840;2022-10-17T03:29:04;101410.06;;;16.45;83.85
6020;BME280;3038;51.122;6.840;2022-10-17T03:31:29;101412.00;;;16.51;83.91
6020;BME280;3038;51.122;6.840;2022-10-17T03:33:55;101420.69;;;16.53;83.81
6020;BME280;3038;51.122;6.840;2022-10-17T03:36:20;101413.31;;;16.55;83.92
6020;BME280;3038;51.122;6.840;2022-10-17T03:38:46;101416.63;;;16.57;83.52
6020;BME280;3038;51.122;6.840;2022-10-17T03:41:12;101434.03;;;16.61;83.59
6020;BME280;3038;51.122;6.840;2022-10-17T03:43:38;101430.31;;;16.62;83.34
6020;BME280;3038;51.122;6.840;2022-10-17T03:46:05;101421.28;;;16.63;83.35
6020;BME280;3038;51.122;6.840;2022-10-17T03:48:31;101425.44;;;16.66;83.22
6020;BME280;3038;51.122;6.840;2022-10-17T03:51:14;101425.91;;;16.69;83.06
6020;BME280;3038;51.122;6.840;2022-10-17T03:53:40;101432.78;;;16.72;82.82
6020;BME280;3038;51.122;6.840;2022-10-17T03:56:24;101440.34;;;16.68;82.58
6020;BME280;3038;51.122;6.840;2022-10-17T03:58:50;101430.44;;;16.69;83.27
6020;BME280;3038;51.122;6.840;2022-10-17T04:01:17;101438.66;;;16.67;82.89
6020;BME280;3038;51.122;6.840;2022-10-17T04:03:43;101440.50;;;16.67;83.01
6020;BME280;3038;51.122;6.840;2022-10-17T04:06:11;101441.53;;;16.66;83.04
6020;BME280;3038;51.122;6.840;2022-10-17T04:08:36;101434.63;;;16.72;83.00
6020;BME280;3038;51.122;6.840;2022-10-17T04:11:04;101439.63;;;16.75;82.75
6020;BME280;3038;51.122;6.840;2022-10-17T04:13:30;101435.47;;;16.72;82.84
6020;BME280;3038;51.122;6.840;2022-10-17T04:15:59;101442.50;;;16.73;82.66
6020;BME280;3038;51.122;6.840;2022-10-17T04:18:25;101429.25;;;16.72;82.80
6020;BME280;3038;51.122;6.840;2022-10-17T04:20:51;101443.34;;;16.74;82.55
6020;BME280;3038;51.122;6.840;2022-10-17T04:23:16;101453.25;;;16.73;82.56
6020;BME280;3038;51.122;6.840;2022-10-17T04:25:42;101455.06;;;16.73;82.73
6020;BME280;3038;51.122;6.840;2022-10-17T04:28:07;101459.59;;;16.72;82.35
6020;BME280;3038;51.122;6.840;2022-10-17T04:30:32;101452.72;;;16.69;82.66
6020;BME280;3038;51.122;6.840;2022-10-17T04:32:58;101450.88;;;16.70;82.45
6020;BME280;3038;51.122;6.840;2022-10-17T04:35:23;101441.19;;;16.69;82.69
6020;BME280;3038;51.122;6.840;2022-10-17T04:37:49;101444.00;;;16.67;82.67
6020;BME280;3038;51.122;6.840;2022-10-17T04:40:14;101442.00;;;16.69;82.66
6020;BME280;3038;51.122;6.840;2022-10-17T04:42:39;101444.50;;;16.71;82.54
6020;BME280;3038;51.122;6.840;2022-10-17T04:45:05;101441.19;;;16.69;82.59
6020;BME280;3038;51.122;6.840;2022-10-17T04:47:30;101445.50;;;16.70;82.50
6020;BME280;3038;51.122;6.840;2022-10-17T04:49:56;101450.72;;;16.72;82.52
6020;BME280;3038;51.122;6.840;2022-10-17T04:52:21;101453.25;;;16.73;82.23
6020;BME280;3038;51.122;6.840;2022-10-17T04:54:46;101449.16;;;16.77;82.10
6020;BME280;3038;51.122;6.840;2022-10-17T04:57:12;101454.50;;;16.77;82.10
6020;BME280;3038;51.122;6.840;2022-10-17T04:59:37;101442.81;;;16.78;82.17
6020;BME280;3038;51.122;6.840;2022-10-17T05:02:03;101446.31;;;16.79;81.90
6020;BME280;3038;51.122;6.840;2022-10-17T05:04:28;101454.16;;;16.80;81.87
6020;BME280;3038;51.122;6.840;2022-10-17T05:06:53;101457.47;;;16.82;81.93
6020;BME280;3038;51.122;6.840;2022-10-17T05:09:19;101450.75;;;16.86;81.58
6020;BME280;3038;51.122;6.840;2022-10-17T05:11:44;101453.41;;;16.86;81.52
6020;BME280;3038;51.122;6.840;2022-10-17T05:14:10;101456.78;;;16.88;81.62
6020;BME280;3038;51.122;6.840;2022-10-17T05:16:35;101452.72;;;16.92;81.41
6020;BME280;3038;51.122;6.840;2022-10-17T05:19:00;101455.19;;;16.94;81.43
6020;BME280;3038;51.122;6.840;2022-10-17T05:21:27;101455.69;;;16.98;81.35
6020;BME280;3038;51.122;6.840;2022-10-17T05:23:53;101459.00;;;17.00;81.28
6020;BME280;3038;51.122;6.840;2022-10-17T05:26:19;101464.00;;;17.03;80.99
6020;BME280;3038;51.122;6.840;2022-10-17T05:28:45;101463.34;;;17.01;80.85
6020;BME280;3038;51.122;6.840;2022-10-17T05:31:11;101460.31;;;17.04;81.11
6020;BME280;3038;51.122;6.840;2022-10-17T05:33:37;101474.34;;;17.06;80.82
6020;BME280;3038;51.122;6.840;2022-10-17T05:36:03;101466.31;;;17.06;80.80
6020;BME280;3038;51.122;6.840;2022-10-17T05:38:29;101470.66;;;17.07;80.93
6020;BME280;3038;51.122;6.840;2022-10-17T05:40:59;101472.34;;;17.08;80.49
6020;BME280;3038;51.122;6.840;2022-10-17T05:43:25;101486.38;;;17.10;80.51
6020;BME280;3038;51.122;6.840;2022-10-17T05:45:51;101494.81;;;17.07;80.49
6020;BME280;3038;51.122;6.840;2022-10-17T05:48:16;101495.81;;;17.06;80.66
6020;BME280;3038;51.122;6.840;2022-10-17T05:50:42;101483.63;;;17.03;80.57
6020;BME280;3038;51.122;6.840;2022-10-17T05:53:08;101483.78;;;17.02;80.61
6020;BME280;3038;51.122;6.840;2022-10-17T05:55:34;101476.75;;;17.01;80.55
6020;BME280;3038;51.122;6.840;2022-10-17T05:58:00;101482.66;;;16.96;80.64
6020;BME280;3038;51.122;6.840;2022-10-17T06:00:25;101478.31;;;16.95;80.75
6020;BME280;3038;51.122;6.840;2022-10-17T06:02:51;101480.81;;;16.96;80.25
6020;BME280;3038;51.122;6.840;2022-10-17T06:05:16;101475.84;;;16.93;80.78
6020;BME280;3038;51.122;6.840;2022-10-17T06:07:42;101480.38;;;16.93;80.56
6020;BME280;3038;51.122;6.840;2022-10-17T06:10:08;101484.50;;;16.95;80.67
6020;BME280;3038;51.122;6.840;2022-10-17T06:12:34;101489.88;;;16.95;80.55
6020;BME280;3038;51.122;6.840;2022-10-17T06:14:59;101495.25;;;16.95;80.63
6020;BME280;3038;51.122;6.840;2022-10-17T06:17:24;101502.94;;;16.99;80.42
6020;BME280;3038;51.122;6.840;2022-10-17T06:19:50;101508.31;;;16.99;80.18
6020;BME280;3038;51.122;6.840;2022-10-17T06:22:15;101520.06;;;16.98;80.61
6020;BME280;3038;51.122;6.840;2022-10-17T06:24:41;101531.44;;;17.00;80.37
6020;BME280;3038;51.122;6.840;2022-10-17T06:27:07;101533.75;;;17.03;80.45
6020;BME280;3038;51.122;6.840;2022-10-17T06:29:32;101537.56;;;17.08;80.04
6020;BME280;3038;51.122;6.840;2022-10-17T06:31:58;101530.16;;;17.10;80.09
6020;BME280;3038;51.122;6.840;2022-10-17T06:34:23;101534.69;;;17.10;80.01
6020;BME280;3038;51.122;6.840;2022-10-17T06:36:49;101544.31;;;17.19;79.95
6020;BME280;3038;51.122;6.840;2022-10-17T06:39:14;101534.91;;;17.23;79.78
6020;BME280;3038;51.122;6.840;2022-10-17T06:41:40;101543.22;;;17.28;79.57
6020;BME280;3038;51.122;6.840;2022-10-17T06:44:06;101543.22;;;17.28;79.37
6020;BME280;3038;51.122;6.840;2022-10-17T06:46:35;101542.19;;;17.29;79.48
6020;BME280;3038;51.122;6.840;2022-10-17T06:49:01;101548.88;;;17.33;79.45
6020;BME280;3038;51.122;6.840;2022-10-17T06:51:29;101546.00;;;17.35;79.26
6020;BME280;3038;51.122;6.840;2022-10-17T06:53:56;101543.78;;;17.38;79.19
6020;BME280;3038;51.122;6.840;2022-10-17T06:56:22;101546.47;;;17.38;79.10
6020;BME280;3038;51.122;6.840;2022-10-17T06:58:47;101554.16;;;17.41;78.96
6020;BME280;3038;51.122;6.840;2022-10-17T07:01:14;101557.97;;;17.47;78.50
6020;BME280;3038;51.122;6.840;2022-10-17T07:03:40;101560.09;;;17.52;78.59
6020;BME280;3038;51.122;6.840;2022-10-17T07:06:07;101566.38;;;17.59;78.55
6020;BME280;3038;51.122;6.840;2022-10-17T07:08:35;101572.31;;;17.69;78.07
6020;BME280;3038;51.122;6.840;2022-10-17T07:11:11;101562.88;;;17.73;77.59
6020;BME280;3038;51.122;6.840;2022-10-17T07:13:37;101573.53;;;17.81;77.49
6020;BME280;3038;51.122;6.840;2022-10-17T07:16:03;101573.81;;;17.86;77.67
6020;BME280;3038;51.122;6.840;2022-10-17T07:18:28;101564.38;;;17.90;77.48
6020;BME280;3038;51.122;6.840;2022-10-17T07:20:54;101563.25;;;18.00;77.20
6020;BME280;3038;51.122;6.840;2022-10-17T07:23:20;101562.47;;;18.06;76.92
6020;BME280;3038;51.122;6.840;2022-10-17T07:25:46;101559.69;;;18.14;76.55
6020;BME280;3038;51.122;6.840;2022-10-17T07:28:13;101566.72;;;18.15;76.20
6020;BME280;3038;51.122;6.840;2022-10-17T07:30:38;101568.66;;;18.21;76.16
6020;BME280;3038;51.122;6.840;2022-10-17T07:33:04;101571.44;;;18.28;75.96
6020;BME280;3038;51.122;6.840;2022-10-17T07:35:29;101572.53;;;18.33;75.74
6020;BME280;3038;51.122;6.840;2022-10-17T07:37:55;101574.19;;;18.34;75.47
6020;BME280;3038;51.122;6.840;2022-10-17T07:40:20;101572.78;;;18.38;75.10
6020;BME280;3038;51.122;6.840;2022-10-17T07:42:45;101571.38;;;18.42;75.42
6020;BME280;3038;51.122;6.840;2022-10-17T07:45:11;101564.41;;;18.48;74.70
6020;BME280;3038;51.122;6.840;2022-10-17T07:47:36;101569.84;;;18.55;74.73
6020;BME280;3038;51.122;6.840;2022-10-17T07:50:03;101565.13;;;18.57;74.51
6020;BME280;3038;51.122;6.840;2022-10-17T07:52:29;101564.34;;;18.63;74.52
6020;BME280;3038;51.122;6.840;2022-10-17T07:54:54;101570.19;;;18.66;74.45
6020;BME280;3038;51.122;6.840;2022-10-17T07:57:20;101574.16;;;18.70;73.88
6020;BME280;3038;51.122;6.840;2022-10-17T07:59:45;101575.66;;;18.73;74.26
6020;BME280;3038;51.122;6.840;2022-10-17T08:02:20;101571.34;;;18.79;73.54
6020;BME280;3038;51.122;6.840;2022-10-17T08:04:46;101572.44;;;18.84;73.91
6020;BME280;3038;51.122;6.840;2022-10-17T08:07:12;101576.66;;;18.93;73.30
6020;BME280;3038;51.122;6.840;2022-10-17T08:09:37;101583.94;;;18.99;73.27
6020;BME280;3038;51.122;6.840;2022-10-17T08:12:02;101582.53;;;19.04;72.60
6020;BME280;3038;51.122;6.840;2022-10-17T08:14:28;101585.94;;;19.12;72.75
6020;BME280;3038;51.122;6.840;2022-10-17T08:16:53;101594.03;;;19.19;72.68
6020;BME280;3038;51.122;6.840;2022-10-17T08:19:19;101598.00;;;19.23;72.39
6020;BME280;3038;51.122;6.840;2022-10-17T08:21:44;101609.22;;;19.26;72.54
6020;BME280;3038;51.122;6.840;2022-10-17T08:24:11;101626.09;;;19.35;71.91
6020;BME280;3038;51.122;6.840;2022-10-17T08:26:36;101633.63;;;19.46;71.15
6020;BME280;3038;51.122;6.840;2022-10-17T08:29:02;101630.66;;;19.63;71.26
6020;BME280;3038;51.122;6.840;2022-10-17T08:31:27;101634.84;;;19.72;71.00
6020;BME280;3038;51.122;6.840;2022-10-17T08:33:53;101629.16;;;19.88;70.68
6020;BME280;3038;51.122;6.840;2022-10-17T08:36:20;101630.94;;;20.16;69.84
6020;BME280;3038;51.122;6.840;2022-10-17T08:38:46;101632.88;;;20.28;69.65
6020;BME280;3038;51.122;6.840;2022-10-17T08:46:47;101635.31;;;20.65;68.32
6020;BME280;3038;51.122;6.840;2022-10-17T08:52:02;101649.81;;;20.50;67.27
6020;BME280;3038;51.122;6.840;2022-10-17T08:54:49;101653.06;;;20.46;68.18
6020;BME280;3038;51.122;6.840;2022-10-17T08:57:16;101656.03;;;20.51;68.38
6020;BME280;3038;51.122;6.840;2022-10-17T08:59:42;101651.69;;;20.63;68.01
6020;BME280;3038;51.122;6.840;2022-10-17T09:02:36;101653.16;;;20.79;67.31
6020;BME280;3038;51.122;6.840;2022-10-17T09:19:18;101667.34;;;21.01;66.09
6020;BME280;3038;51.122;6.840;2022-10-17T09:21:55;101685.28;;;21.35;65.22
6020;BME280;3038;51.122;6.840;2022-10-17T09:25:02;101684.63;;;21.46;64.38
6020;BME280;3038;51.122;6.840;2022-10-17T09:27:39;101687.34;;;21.60;64.36
6020;BME280;3038;51.122;6.840;2022-10-17T09:32:41;101688.19;;;21.53;64.83
6020;BME280;3038;51.122;6.840;2022-10-17T09:35:14;101692.75;;;21.46;64.72
6020;BME280;3038;51.122;6.840;2022-10-17T09:37:42;101685.91;;;21.37;65.66
6020;BME280;3038;51.122;6.840;2022-10-17T09:40:17;101684.41;;;21.28;65.41
6020;BME280;3038;51.122;6.840;2022-10-17T09:42:44;101690.22;;;21.25;65.81
6020;BME280;3038;51.122;6.840;2022-10-17T09:45:20;101685.00;;;21.17;65.56
6020;BME280;3038;51.122;6.840;2022-10-17T09:48:07;101683.97;;;21.11;65.38
6020;BME280;3038;51.122;6.840;2022-10-17T09:50:35;101689.78;;;21.01;66.76
6020;BME280;3038;51.122;6.840;2022-10-17T09:53:08;101696.03;;;21.09;66.12
6020;BME280;3038;51.122;6.840;2022-10-17T09:55:43;101706.00;;;21.15;66.22
6020;BME280;3038;51.122;6.840;2022-10-17T09:58:10;101706.41;;;21.12;66.38
6020;BME280;3038;51.122;6.840;2022-10-17T10:00:37;101708.06;;;21.13;66.54
6020;BME280;3038;51.122;6.840;2022-10-17T10:03:25;101707.00;;;21.07;66.14
6020;BME280;3038;51.122;6.840;2022-10-17T10:06:23;101705.16;;;21.01;66.48
6020;BME280;3038;51.122;6.840;2022-10-17T10:08:54;101707.63;;;21.02;66.74
6020;BME280;3038;51.122;6.840;2022-10-17T10:11:50;101717.59;;;20.95;66.56
6020;BME280;3038;51.122;6.840;2022-10-17T10:16:54;101715.94;;;21.01;67.12
6020;BME280;3038;51.122;6.840;2022-10-17T10:19:32;101717.81;;;21.00;66.89
6020;BME280;3038;51.122;6.840;2022-10-17T10:22:03;101717.59;;;20.95;67.04
6020;BME280;3038;51.122;6.840;2022-10-17T10:24:29;101711.38;;;21.01;66.98
6020;BME280;3038;51.122;6.840;2022-10-17T10:27:01;101715.94;;;21.08;66.81
6020;BME280;3038;51.122;6.840;2022-10-17T10:29:34;101715.53;;;21.04;66.68
6020;BME280;3038;51.122;6.840;2022-10-17T10:32:17;101705.16;;;21.08;66.69
6020;BME280;3038;51.122;6.840;2022-10-17T10:34:54;101717.19;;;21.12;66.63
6020;BME280;3038;51.122;6.840;2022-10-17T10:37:24;101730.53;;;21.13;66.82
6020;BME280;3038;51.122;6.840;2022-10-17T10:39:56;101745.03;;;21.12;67.04
6020;BME280;3038;51.122;6.840;2022-10-17T10:42:31;101740.06;;;21.09;66.79
6020;BME280;3038;51.122;6.840;2022-10-17T10:45:25;101754.78;;;21.07;66.67
6020;BME280;3038;51.122;6.840;2022-10-17T10:50:30;101769.97;;;21.08;66.91
6020;BME280;3038;51.122;6.840;2022-10-17T10:53:31;101769.97;;;21.08;66.95
6020;BME280;3038;51.122;6.840;2022-10-17T11:01:53;101779.16;;;21.20;67.04
6020;BME280;3038;51.122;6.840;2022-10-17T11:04:40;101764.38;;;21.16;67.03
6020;BME280;3038;51.122;6.840;2022-10-17T11:10:11;101767.91;;;21.10;67.89
6020;BME280;3038;51.122;6.840;2022-10-17T11:12:45;101724.69;;;21.16;67.42
6020;BME280;3038;51.122;6.840;2022-10-17T11:18:06;101716.03;;;21.47;67.64
6020;BME280;3038;51.122;6.840;2022-10-17T11:23:42;101757.59;;;21.46;67.45
6020;BME280;3038;51.122;6.840;2022-10-17T11:26:10;101753.44;;;21.50;67.63
6020;BME280;3038;51.122;6.840;2022-10-17T11:28:37;101758.03;;;21.43;67.55
6020;BME280;3038;51.122;6.840;2022-10-17T11:31:06;101769.22;;;21.40;67.43
6020;BME280;3038;51.122;6.840;2022-10-17T11:36:04;101777.38;;;21.53;67.55
6020;BME280;3038;51.122;6.840;2022-10-17T11:38:48;101774.47;;;21.68;66.38
6020;BME280;3038;51.122;6.840;2022-10-17T11:41:23;101778.00;;;21.62;66.75
6020;BME280;3038;51.122;6.840;2022-10-17T11:43:56;101774.69;;;21.67;67.11
6020;BME280;3038;51.122;6.840;2022-10-17T11:46:25;101770.50;;;21.77;66.81
6020;BME280;3038;51.122;6.840;2022-10-17T11:49:14;101772.56;;;21.75;65.81
6020;BME280;3038;51.122;6.840;2022-10-17T11:51:44;101786.72;;;21.84;66.23
6020;BME280;3038;51.122;6.840;2022-10-17T11:54:37;101785.06;;;21.96;65.70
6020;BME280;3038;51.122;6.840;2022-10-17T11:57:34;101782.16;;;21.98;65.37
6020;BME280;3038;51.122;6.840;2022-10-17T12:00:08;101782.34;;;21.96;66.02
6020;BME280;3038;51.122;6.840;2022-10-17T12:08:11;101783.59;;;21.87;66.26
6020;BME280;3038;51.122;6.840;2022-10-17T12:15:52;101801.91;;;21.72;66.74
6020;BME280;3038;51.122;6.840;2022-10-17T12:18:18;101802.53;;;21.74;66.53
6020;BME280;3038;51.122;6.840;2022-10-17T12:21:00;101792.13;;;21.84;66.46
6020;BME280;3038;51.122;6.840;2022-10-17T12:23:27;101795.03;;;21.89;66.40
6020;BME280;3038;51.122;6.840;2022-10-17T12:25:58;101801.28;;;21.96;65.79
6020;BME280;3038;51.122;6.840;2022-10-17T12:28:39;101803.38;;;22.01;65.42
6020;BME280;3038;51.122;6.840;2022-10-17T12:33:52;101796.91;;;21.75;66.70
6020;BME280;3038;51.122;6.840;2022-10-17T12:38:48;101806.25;;;21.60;67.50
6020;BME280;3038;51.122;6.840;2022-10-17T12:41:15;101811.22;;;21.56;67.49
6020;BME280;3038;51.122;6.840;2022-10-17T12:46:10;101805.81;;;21.56;67.68
6020;BME280;3038;51.122;6.840;2022-10-17T12:51:16;101817.47;;;21.50;67.49
6020;BME280;3038;51.122;6.840;2022-10-17T12:53:53;101817.69;;;21.48;67.64
6020;BME280;3038;51.122;6.840;2022-10-17T12:59:07;101830.75;;;21.38;67.39
6020;BME280;3038;51.122;6.840;2022-10-17T13:01:37;101827.63;;;21.41;67.05
6020;BME280;3038;51.122;6.840;2022-10-17T13:04:09;101828.47;;;21.42;66.69
6020;BME280;3038;51.122;6.840;2022-10-17T13:06:42;101833.47;;;21.45;66.69
6020;BME280;3038;51.122;6.840;2022-10-17T13:09:22;101835.56;;;21.49;67.81
6020;BME280;3038;51.122;6.840;2022-10-17T13:11:49;101841.78;;;21.43;67.50
6020;BME280;3038;51.122;6.840;2022-10-17T13:14:18;101840.34;;;21.47;67.83
6020;BME280;3038;51.122;6.840;2022-10-17T13:17:00;101846.16;;;21.51;67.86
6020;BME280;3038;51.122;6.840;2022-10-17T13:19:29;101846.97;;;21.51;68.05
6020;BME280;3038;51.122;6.840;2022-10-17T13:21:58;101851.97;;;21.54;67.66
6020;BME280;3038;51.122;6.840;2022-10-17T13:27:00;101855.50;;;21.48;67.90
6020;BME280;3038;51.122;6.840;2022-10-17T13:29:26;101864.44;;;21.49;67.91
6020;BME280;3038;51.122;6.840;2022-10-17T13:31:59;101854.91;;;21.53;67.83
6020;BME280;3038;51.122;6.840;2022-10-17T13:34:28;101865.28;;;21.49;67.82
6020;BME280;3038;51.122;6.840;2022-10-17T13:36:56;101864.84;;;21.46;67.97
6020;BME280;3038;51.122;6.840;2022-10-17T13:39:25;101869.84;;;21.49;67.59
6020;BME280;3038;51.122;6.840;2022-10-17T13:41:53;101876.47;;;21.46;68.11
6020;BME280;3038;51.122;6.840;2022-10-17T13:44:22;101873.78;;;21.46;67.74
6020;BME280;3038;51.122;6.840;2022-10-17T13:46:49;101877.75;;;21.50;67.68
6020;BME280;3038;51.122;6.840;2022-10-17T13:49:31;101882.31;;;21.43;67.06
6020;BME280;3038;51.122;6.840;2022-10-17T13:51:58;101873.19;;;21.51;67.19
6020;BME280;3038;51.122;6.840;2022-10-17T13:54:37;101876.97;;;21.57;66.86
6020;BME280;3038;51.122;6.840;2022-10-17T13:57:22;101886.06;;;21.55;66.62
6020;BME280;3038;51.122;6.840;2022-10-17T13:59:52;101887.72;;;21.50;67.00
6020;BME280;3038;51.122;6.840;2022-10-17T14:02:21;101878.78;;;21.49;67.47
6020;BME280;3038;51.122;6.840;2022-10-17T14:12:54;101880.91;;;21.74;67.23
6020;BME280;3038;51.122;6.840;2022-10-17T14:15:23;101884.28;;;21.83;67.15
6020;BME280;3038;51.122;6.840;2022-10-17T14:18:07;101889.25;;;21.79;66.96
6020;BME280;3038;51.122;6.840;2022-10-17T14:20:34;101880.31;;;21.72;67.41
6020;BME280;3038;51.122;6.840;2022-10-17T14:23:00;101883.00;;;21.72;67.38
6020;BME280;3038;51.122;6.840;2022-10-17T14:25:36;101886.31;;;21.74;67.27
6020;BME280;3038;51.122;6.840;2022-10-17T14:30:46;101884.03;;;21.64;67.41
6020;BME280;3038;51.122;6.840;2022-10-17T14:33:14;101897.09;;;21.61;67.28
6020;BME280;3038;51.122;6.840;2022-10-17T14:35:53;101901.69;;;21.53;67.53
6020;BME280;3038;51.122;6.840;2022-10-17T14:38:20;101910.38;;;21.49;67.80
6020;BME280;3038;51.122;6.840;2022-10-17T14:43:22;101923.44;;;21.39;68.14
6020;BME280;3038;51.122;6.840;2022-10-17T14:45:49;101933.00;;;21.41;68.06
6020;BME280;3038;51.122;6.840;2022-10-17T14:48:20;101923.47;;;21.45;67.58
6020;BME280;3038;51.122;6.840;2022-10-17T14:51:13;101933.44;;;21.45;67.78
6020;BME280;3038;51.122;6.840;2022-10-17T14:53:40;101938.84;;;21.45;67.93
6020;BME280;3038;51.122;6.840;2022-10-17T14:56:27;101945.72;;;21.47;67.72
6020;BME280;3038;51.122;6.840;2022-10-17T14:58:52;101942.22;;;21.53;67.66
6020;BME280;3038;51.122;6.840;2022-10-17T15:01:18;101940.13;;;21.55;67.61
6020;BME280;3038;51.122;6.840;2022-10-17T15:03:43;101941.16;;;21.48;67.33
6020;BME280;3038;51.122;6.840;2022-10-17T15:06:21;101936.97;;;21.45;67.08
6020;BME280;3038;51.122;6.840;2022-10-17T15:08:47;101942.56;;;21.37;67.16
6020;BME280;3038;51.122;6.840;2022-10-17T15:11:13;101941.66;;;21.30;67.37
6020;BME280;3038;51.122;6.840;2022-10-17T15:13:38;101952.25;;;21.25;67.37